Norwegian Epic — C6XP7 — position and weather

sailwx.info

Track history (hours):
 
Tides and Currents Weather Stations Pressure Air Temp Water Temp Dewpoint Dewpoint Depression Visibility Wind Speed Wind Dir Waves Ship Positions

Norwegian Epic

Last reported at 2019-Jun-16 14:00 UTC. Time now 2019-Jun-16 15:08 UTC.
Position N 41°22' E 002°11'.

Length 329 m; draft 9.2 m.

Type: Passenger vessel. MMSI: 311018500.

Date/timePositionNaut miles runAvg speedWind from/ knotsBaromVisibWave heightAir tempDewpointWater temp
2019-Jun-16 14:00N 41°22' E 002°11'0 0.0
2019-Jun-16 11:49N 41°22' E 002°11'0 0.0
2019-Jun-16 10:02N 41°22' E 002°11'0 0.0
2019-Jun-16 09:33N 41°22' E 002°11'0 0.1
2019-Jun-16 09:27N 41°22' E 002°11'0 0.0
2019-Jun-16 08:15N 41°22' E 002°11'0 0.0
2019-Jun-16 07:46N 41°22' E 002°11'0 0.0
2019-Jun-16 07:28N 41°22' E 002°11'0 0.0
2019-Jun-16 05:50N 41°22' E 002°11'0 0.0
2019-Jun-16 05:26N 41°22' E 002°11'0 0.0
2019-Jun-16 04:18N 41°22' E 002°11'0 0.0
2019-Jun-16 03:57N 41°22' E 002°11'0 0.0
2019-Jun-16 03:22N 41°22' E 002°11'0 0.0
2019-Jun-16 03:00N 41°22' E 002°11'1 1.8
2019-Jun-16 02:30N 41°21' E 002°10'3 6.8
2019-Jun-16 02:00N 41°18' E 002°11'714.1
2019-Jun-16 01:31N 41°11' E 002°11'916.6
2019-Jun-16 00:59N 41°02' E 002°12'816.6
2019-Jun-16 00:30N 40°54' E 002°12'8617.8
2019-Jun-15 19:43N 39°29' E 002°23'418.6
2019-Jun-15 19:30N 39°26' E 002°26'816.2
2019-Jun-15 19:00N 39°30' E 002°36'4 8.0
2019-Jun-15 18:30N 39°33' E 002°38'0 0.0
2019-Jun-15 17:58N 39°33' E 002°38'0 0.0
2019-Jun-15 17:28N 39°33' E 002°38'0 0.0
2019-Jun-15 16:58N 39°33' E 002°38'0 0.0
2019-Jun-15 16:29N 39°33' E 002°38'0 0.0
2019-Jun-15 15:56N 39°33' E 002°38'0 0.0
2019-Jun-15 15:29N 39°33' E 002°38'0 0.0
2019-Jun-15 14:57N 39°33' E 002°38'0 0.0
2019-Jun-15 14:30N 39°33' E 002°38'0 0.0
2019-Jun-15 14:00N 39°33' E 002°38'0 0.0
2019-Jun-15 13:28N 39°33' E 002°38'0 0.0
2019-Jun-15 12:55N 39°33' E 002°38'0 0.0
2019-Jun-15 12:25N 39°33' E 002°38'0 0.0
2019-Jun-15 11:59N 39°33' E 002°38'0 0.0
2019-Jun-15 11:30N 39°33' E 002°38'2 3.1
2019-Jun-15 11:00N 39°32' E 002°38'917.2
2019-Jun-15 10:30N 39°26' E 002°30'2614.5
2019-Jun-15 08:44N 39°51' E 002°35'520.2
2019-Jun-15 08:30N 39°55' E 002°40'1320.0
2019-Jun-15 07:51N 40°04' E 002°51'24920.3
2019-Jun-14 19:35N 43°04' E 006°41'120.1
2019-Jun-14 19:31N 43°05' E 006°42'1019.8
2019-Jun-14 19:01N 43°13' E 006°51'1019.5
2019-Jun-14 18:31N 43°22' E 006°56'917.8
2019-Jun-14 18:00N 43°31' E 007°00'2 3.0
2019-Jun-14 17:29N 43°32' E 007°01'0 0.1
2019-Jun-14 16:59N 43°32' E 007°01'0 0.0
2019-Jun-14 16:29N 43°32' E 007°01'0 0.0
2019-Jun-14 16:00N 43°32' E 007°01'0 0.1
2019-Jun-14 15:30N 43°32' E 007°00'0 0.0
2019-Jun-14 14:57N 43°32' E 007°01'0 0.0
2019-Jun-14 14:28N 43°32' E 007°00'0 0.0
2019-Jun-14 13:58N 43°32' E 007°01'0 0.0
2019-Jun-14 13:28N 43°32' E 007°01'0 0.0
2019-Jun-14 12:59N 43°32' E 007°00'0 0.0
2019-Jun-14 12:29N 43°32' E 007°01'0 0.0
2019-Jun-14 11:59N 43°32' E 007°00'0 0.0
2019-Jun-14 11:27N 43°32' E 007°01'0 0.0
2019-Jun-14 11:00N 43°32' E 007°01'0 0.0
2019-Jun-14 10:30N 43°32' E 007°00'0 0.0
2019-Jun-14 09:58N 43°32' E 007°01'0 0.0
2019-Jun-14 09:28N 43°32' E 007°01'0 0.0
2019-Jun-14 08:58N 43°32' E 007°00'0 0.0
2019-Jun-14 08:29N 43°32' E 007°00'0 0.0
2019-Jun-14 07:59N 43°32' E 007°00'0 0.0
2019-Jun-14 07:29N 43°32' E 007°00'0 0.0
2019-Jun-14 07:00N 43°32' E 007°00'0 0.0
2019-Jun-14 06:27N 43°32' E 007°00'0 0.0
2019-Jun-14 06:00N 43°32' E 007°00'0 0.0
2019-Jun-14 05:28N 43°32' E 007°00'0 0.0
2019-Jun-14 04:58N 43°32' E 007°01'2 3.9
2019-Jun-14 04:30N 43°30' E 007°00'610.9
2019-Jun-14 04:00N 43°28' E 007°07'815.8
2019-Jun-14 03:30N 43°28' E 007°18'816.7
2019-Jun-14 03:00N 43°28' E 007°30'816.6
2019-Jun-14 02:30N 43°29' E 007°41'816.3
2019-Jun-14 02:00N 43°29' E 007°52'816.2
2019-Jun-14 01:30N 43°29' E 008°03'816.5
2019-Jun-14 01:00N 43°29' E 008°15'917.2
2019-Jun-14 00:30N 43°30' E 008°27'917.3
2019-Jun-14 00:00N 43°30' E 008°38'816.7
2019-Jun-13 23:30N 43°30' E 008°50'816.5
2019-Jun-13 23:00N 43°31' E 009°01'816.3
2019-Jun-13 22:30N 43°31' E 009°13'816.2
2019-Jun-13 22:00N 43°31' E 009°24'816.1
2019-Jun-13 21:30N 43°31' E 009°35'816.5
2019-Jun-13 21:00N 43°31' E 009°46'816.6
2019-Jun-13 20:30N 43°31' E 009°58'816.4
2019-Jun-13 20:00N 43°30' E 010°09'713.2
2019-Jun-13 19:31N 43°32' E 010°17'1 1.7
2019-Jun-13 19:00N 43°33' E 010°18'0 0.0
2019-Jun-13 18:29N 43°33' E 010°18'0 0.0
2019-Jun-13 17:59N 43°33' E 010°18'0 0.0
2019-Jun-13 17:30N 43°33' E 010°18'0 0.0
2019-Jun-13 17:00N 43°33' E 010°18'0 0.0
2019-Jun-13 16:30N 43°33' E 010°18'0 0.0
2019-Jun-13 15:58N 43°33' E 010°18'0 0.0
2019-Jun-13 15:28N 43°33' E 010°18'0 0.0
2019-Jun-13 14:58N 43°33' E 010°18'0 0.0
2019-Jun-13 14:29N 43°33' E 010°18'0 0.0
2019-Jun-13 13:59N 43°33' E 010°18'0 0.0
2019-Jun-13 13:29N 43°33' E 010°18'0 0.0
2019-Jun-13 12:57N 43°33' E 010°18'0 0.0
2019-Jun-13 12:30N 43°33' E 010°18'0 0.0
2019-Jun-13 12:00N 43°33' E 010°18'0 0.0
2019-Jun-13 11:30N 43°33' E 010°18'0 0.0
2019-Jun-13 10:58N 43°33' E 010°18'0 0.0
2019-Jun-13 10:28N 43°33' E 010°18'0 0.0
2019-Jun-13 09:58N 43°33' E 010°18'0 0.0
2019-Jun-13 09:29N 43°33' E 010°18'0 0.0
2019-Jun-13 08:59N 43°33' E 010°18'0 0.0
2019-Jun-13 08:29N 43°33' E 010°18'0 0.0
2019-Jun-13 08:00N 43°33' E 010°18'0 0.0
2019-Jun-13 07:24N 43°33' E 010°18'0 0.0
2019-Jun-13 07:00N 43°33' E 010°18'0 0.0
2019-Jun-13 06:30N 43°33' E 010°18'2 4.7
2019-Jun-13 06:00N 43°31' E 010°16'918.7
2019-Jun-13 05:31N 43°23' E 010°11'1020.8
2019-Jun-13 05:00N 43°13' E 010°07'1020.7
2019-Jun-13 04:30N 43°03' E 010°03'1020.6
2019-Jun-13 04:01N 42°53' E 009°60'1020.2
2019-Jun-13 03:30N 42°43' E 009°57'1019.4
2019-Jun-13 03:01N 42°34' E 009°54'1020.1
2019-Jun-13 02:30N 42°24' E 009°56'2018.6
2019-Jun-13 01:26N 42°11' E 010°16'1220.9
2019-Jun-13 00:51N 42°06' E 010°32'2020.2
2019-Jun-12 23:50N 41°59' E 010°58'1919.9
2019-Jun-12 22:53N 41°57' E 011°23'22 1.1
2019-Jun-12 01:33N 41°44' E 011°48'517.1
2019-Jun-12 01:15N 41°40' E 011°51'417.2
2019-Jun-12 01:00N 41°36' E 011°54'1317.2
2019-Jun-12 00:14N 41°25' E 012°04'1917.1
2019-Jun-11 23:08N 41°10' E 012°18'3318.1
2019-Jun-11 21:20N 40°48' E 012°51'619.3
2019-Jun-11 21:00N 40°45' E 012°58'919.0
2019-Jun-11 20:30N 40°43' E 013°10'1019.2
2019-Jun-11 20:00N 40°41' E 013°22'1019.2
2019-Jun-11 19:30N 40°39' E 013°35'1019.0
2019-Jun-11 19:00N 40°38' E 013°47'918.3
2019-Jun-11 18:30N 40°39' E 013°59'816.0
2019-Jun-11 18:00N 40°42' E 014°09'815.5
2019-Jun-11 17:30N 40°48' E 014°16'3 4.9
2019-Jun-11 16:59N 40°50' E 014°16'0 0.0
2019-Jun-11 16:29N 40°50' E 014°16'0 0.0
2019-Jun-11 16:00N 40°50' E 014°16'0 0.0
2019-Jun-11 15:30N 40°50' E 014°16'0 0.0
2019-Jun-11 15:00N 40°50' E 014°16'0 0.0
2019-Jun-11 14:28N 40°50' E 014°16'0 0.0
2019-Jun-11 13:58N 40°50' E 014°16'0 0.0
2019-Jun-11 13:28N 40°50' E 014°16'0 0.0
2019-Jun-11 12:56N 40°50' E 014°16'0 0.0
2019-Jun-11 12:29N 40°50' E 014°16'0 0.0
2019-Jun-11 11:59N 40°50' E 014°16'0 0.0
2019-Jun-11 11:30N 40°50' E 014°16'0 0.0
2019-Jun-11 11:00N 40°50' E 014°16'0 0.0
2019-Jun-11 10:30N 40°50' E 014°16'0 0.0
2019-Jun-11 09:55N 40°50' E 014°16'0 0.0
2019-Jun-11 09:28N 40°50' E 014°16'0 0.0
2019-Jun-11 08:58N 40°50' E 014°16'0 0.0
2019-Jun-11 08:23N 40°50' E 014°16'0 0.0
2019-Jun-11 07:56N 40°50' E 014°16'0 0.0
2019-Jun-11 07:29N 40°50' E 014°16'0 0.0
2019-Jun-11 06:57N 40°50' E 014°16'0 0.0
2019-Jun-11 06:30N 40°50' E 014°16'0 0.0
2019-Jun-11 06:00N 40°50' E 014°16'0 0.0
2019-Jun-11 05:28N 40°50' E 014°16'0 0.0
2019-Jun-11 05:00N 40°50' E 014°16'0 0.9
2019-Jun-11 04:30N 40°50' E 014°16'3 5.3
2019-Jun-11 04:00N 40°48' E 014°17'5 9.8
2019-Jun-11 03:30N 40°44' E 014°12'714.7
2019-Jun-11 03:01N 40°40' E 014°05'714.7
2019-Jun-11 02:31N 40°38' E 013°55'815.3
2019-Jun-11 02:01N 40°38' E 013°45'714.9
2019-Jun-11 01:31N 40°39' E 013°36'815.0
2019-Jun-11 01:01N 40°40' E 013°26'714.8
2019-Jun-11 00:31N 40°41' E 013°16'714.9
2019-Jun-11 00:01N 40°42' E 013°06'714.9
2019-Jun-10 23:31N 40°43' E 012°57'714.9
2019-Jun-10 23:01N 40°43' E 012°47'1215.4
2019-Jun-10 22:15N 40°46' E 012°32'6115.4
2019-Jun-10 18:15N 41°01' E 011°13'615.5
2019-Jun-10 17:54N 41°02' E 011°06'1115.7
2019-Jun-10 17:10N 41°05' E 010°51'7717.0
2019-Jun-10 12:38N 41°17' E 009°10'0 0.4
2019-Jun-10 12:13N 41°17' E 009°10'315.6
2019-Jun-10 12:01N 41°17' E 009°05'816.3
2019-Jun-10 11:31N 41°17' E 008°54'816.6
2019-Jun-10 11:00N 41°17' E 008°43'27116.4
2019-Jun-09 18:28N 41°16' E 002°42'715.7
2019-Jun-09 18:01N 41°16' E 002°33'815.9
2019-Jun-09 17:31N 41°16' E 002°22'815.7
2019-Jun-09 17:00N 41°16' E 002°12'5 9.3
2019-Jun-09 16:30N 41°21' E 002°10'1 2.0
2019-Jun-09 15:53N 41°22' E 002°11'0 0.0
2019-Jun-09 15:29N 41°22' E 002°11'0 0.0
2019-Jun-09 14:56N 41°22' E 002°11'0 0.0
2019-Jun-09 14:30N 41°22' E 002°11'0 0.0
2019-Jun-09 14:00N 41°22' E 002°11'0 0.0
2019-Jun-09 13:30N 41°22' E 002°11'0 0.0
2019-Jun-09 12:58N 41°22' E 002°11'0 0.0
2019-Jun-09 12:28N 41°22' E 002°11'0 0.0
2019-Jun-09 11:58N 41°22' E 002°11'0 0.0
2019-Jun-09 11:26N 41°22' E 002°11'0 0.0
2019-Jun-09 10:59N 41°22' E 002°11'0 0.0
2019-Jun-09 10:26N 41°22' E 002°11'0 0.0
2019-Jun-09 10:00N 41°22' E 002°11'0 0.0
2019-Jun-09 09:30N 41°22' E 002°11'0 0.0
2019-Jun-09 09:00N 41°22' E 002°11'0 0.0
2019-Jun-09 08:25N 41°22' E 002°11'0 0.0
2019-Jun-09 07:55N 41°22' E 002°11'0 0.0
2019-Jun-09 07:25N 41°22' E 002°11'0 0.0
2019-Jun-09 06:56N 41°22' E 002°11'0 0.0
2019-Jun-09 06:29N 41°22' E 002°11'0 0.0
2019-Jun-09 05:56N 41°22' E 002°11'0 0.0
2019-Jun-09 05:30N 41°22' E 002°11'0 0.0
2019-Jun-09 05:00N 41°22' E 002°11'0 0.0
2019-Jun-09 03:58N 41°22' E 002°11'0 0.0
2019-Jun-09 03:28N 41°22' E 002°11'0 0.2
2019-Jun-09 03:00N 41°22' E 002°11'1 2.7
2019-Jun-09 02:31N 41°20' E 002°10'3 6.3
2019-Jun-09 02:00N 41°17' E 002°11'4 8.2
2019-Jun-09 01:30N 41°15' E 002°15'611.2
2019-Jun-09 01:00N 41°12' E 002°22'611.2
2019-Jun-09 00:30N 41°09' E 002°28'611.4
2019-Jun-09 00:00N 41°06' E 002°35'611.6
2019-Jun-08 23:30N 41°03' E 002°41'611.6
2019-Jun-08 23:00N 41°00' E 002°48'611.5
2019-Jun-08 22:30N 40°57' E 002°54'611.6
2019-Jun-08 22:00N 40°55' E 003°01'611.8
2019-Jun-08 21:30N 40°51' E 003°08'611.7
2019-Jun-08 21:00N 40°48' E 003°14'612.0
2019-Jun-08 20:30N 40°45' E 003°21'612.1
2019-Jun-08 20:00N 40°43' E 003°28'4 8.6
2019-Jun-08 19:30N 40°45' E 003°34'4 7.6
2019-Jun-08 19:01N 40°42' E 003°30'3 6.1
2019-Jun-08 18:30N 40°39' E 003°29'2 4.4
2019-Jun-08 18:00N 40°38' E 003°31'4 7.1
2019-Jun-08 17:30N 40°42' E 003°31'4 6.9
2019-Jun-08 16:59N 40°43' E 003°35'2 4.6
2019-Jun-08 16:31N 40°43' E 003°32'3 6.6
2019-Jun-08 16:00N 40°41' E 003°29'3 5.2
2019-Jun-08 15:30N 40°39' E 003°32'3 5.9
2019-Jun-08 15:01N 40°42' E 003°32'3 6.7
2019-Jun-08 14:30N 40°43' E 003°36'2 4.9
2019-Jun-08 14:00N 40°42' E 003°33'115 7.3
2019-Jun-07 22:23N 42°02' E 005°22'4520.8
2019-Jun-07 20:12N 42°35' E 006°04'4321.1
2019-Jun-07 18:10N 43°06' E 006°46'321.4
2019-Jun-07 18:00N 43°08' E 006°49'1021.0
2019-Jun-07 17:30N 43°18' E 006°55'918.8
2019-Jun-07 17:00N 43°27' E 006°58'510.8
2019-Jun-07 16:30N 43°32' E 007°01'0 0.3
2019-Jun-07 15:59N 43°32' E 007°01'0 0.0
2019-Jun-07 15:30N 43°32' E 007°01'0 0.0
2019-Jun-07 15:00N 43°32' E 007°01'0 0.0
2019-Jun-07 14:30N 43°32' E 007°00'0 0.0
2019-Jun-07 13:58N 43°32' E 007°01'0 0.0
2019-Jun-07 13:28N 43°32' E 007°01'0 0.0
2019-Jun-07 12:58N 43°32' E 007°01'0 0.0
2019-Jun-07 12:29N 43°32' E 007°01'0 0.0
2019-Jun-07 11:59N 43°32' E 007°00'0 0.0
2019-Jun-07 11:26N 43°32' E 007°01'0 0.0
2019-Jun-07 11:00N 43°32' E 007°01'0 0.0
2019-Jun-07 10:30N 43°32' E 007°01'0 0.0
2019-Jun-07 10:00N 43°32' E 007°00'0 0.0
2019-Jun-07 09:28N 43°32' E 007°00'0 0.0
2019-Jun-07 08:58N 43°32' E 007°00'0 0.0
2019-Jun-07 08:28N 43°32' E 007°01'0 0.0
2019-Jun-07 07:59N 43°32' E 007°00'0 0.1
2019-Jun-07 07:29N 43°32' E 007°00'0 0.0
2019-Jun-07 06:59N 43°32' E 007°00'0 0.0
2019-Jun-07 06:30N 43°32' E 007°00'0 0.0
2019-Jun-07 06:00N 43°32' E 007°00'0 0.1
2019-Jun-07 05:30N 43°32' E 007°01'0 0.1
2019-Jun-07 05:00N 43°32' E 007°01'2 4.0
2019-Jun-07 04:30N 43°30' E 007°01'5 9.8
2019-Jun-07 04:00N 43°28' E 007°07'612.4
2019-Jun-07 03:30N 43°28' E 007°15'612.6
2019-Jun-07 03:00N 43°28' E 007°24'713.3
2019-Jun-07 02:30N 43°28' E 007°33'713.3
2019-Jun-07 02:00N 43°29' E 007°42'613.0
2019-Jun-07 01:30N 43°29' E 007°51'612.9
2019-Jun-07 01:00N 43°29' E 008°00'612.7
2019-Jun-07 00:30N 43°29' E 008°09'612.4
2019-Jun-07 00:00N 43°30' E 008°17'612.5
2019-Jun-06 23:30N 43°30' E 008°26'612.5
2019-Jun-06 23:00N 43°31' E 008°35'612.4
2019-Jun-06 22:30N 43°32' E 008°43'612.2
2019-Jun-06 22:00N 43°31' E 008°51'612.0
2019-Jun-06 21:30N 43°31' E 008°59'611.9
2019-Jun-06 21:00N 43°32' E 009°08'612.2
2019-Jun-06 20:30N 43°32' E 009°16'612.6
2019-Jun-06 20:00N 43°32' E 009°25'815.4
2019-Jun-06 19:30N 43°31' E 009°35'816.0
2019-Jun-06 19:00N 43°31' E 009°46'816.1
2019-Jun-06 18:30N 43°31' E 009°57'816.1
2019-Jun-06 18:00N 43°30' E 010°08'613.0
2019-Jun-06 17:30N 43°32' E 010°17'1 2.0
2019-Jun-06 17:00N 43°33' E 010°18'0 0.0
2019-Jun-06 16:25N 43°33' E 010°18'0 0.0
2019-Jun-06 15:52N 43°33' E 010°18'0 0.0
2019-Jun-06 15:28N 43°33' E 010°18'0 0.0
2019-Jun-06 14:59N 43°33' E 010°18'0 0.0
2019-Jun-06 14:26N 43°33' E 010°18'  
Track history (hours):
 
Tides and Currents Weather Stations Pressure Air Temp Water Temp Dewpoint Dewpoint Depression Visibility Wind Speed Wind Dir Waves Ship Positions

Norwegian Epic

Last reported at 2019-Jun-16 14:00 UTC. Time now 2019-Jun-16 15:08 UTC.
Position N 41°22' E 002°11'.

Length 329 m; draft 9.2 m.

Type: Passenger vessel. MMSI: 311018500.

Date/timePositionNaut miles runAvg speedWind from/ knotsBaromVisibWave heightAir tempDewpointWater temp
2019-Jun-16 14:00N 41°22' E 002°11'0 0.0
2019-Jun-16 11:49N 41°22' E 002°11'0 0.0
2019-Jun-16 10:02N 41°22' E 002°11'0 0.0
2019-Jun-16 09:33N 41°22' E 002°11'0 0.1
2019-Jun-16 09:27N 41°22' E 002°11'0 0.0
2019-Jun-16 08:15N 41°22' E 002°11'0 0.0
2019-Jun-16 07:46N 41°22' E 002°11'0 0.0
2019-Jun-16 07:28N 41°22' E 002°11'0 0.0
2019-Jun-16 05:50N 41°22' E 002°11'0 0.0
2019-Jun-16 05:26N 41°22' E 002°11'0 0.0
2019-Jun-16 04:18N 41°22' E 002°11'0 0.0
2019-Jun-16 03:57N 41°22' E 002°11'0 0.0
2019-Jun-16 03:22N 41°22' E 002°11'0 0.0
2019-Jun-16 03:00N 41°22' E 002°11'1 1.8
2019-Jun-16 02:30N 41°21' E 002°10'3 6.8
2019-Jun-16 02:00N 41°18' E 002°11'714.1
2019-Jun-16 01:31N 41°11' E 002°11'916.6
2019-Jun-16 00:59N 41°02' E 002°12'816.6
2019-Jun-16 00:30N 40°54' E 002°12'8617.8
2019-Jun-15 19:43N 39°29' E 002°23'418.6
2019-Jun-15 19:30N 39°26' E 002°26'816.2
2019-Jun-15 19:00N 39°30' E 002°36'4 8.0
2019-Jun-15 18:30N 39°33' E 002°38'0 0.0
2019-Jun-15 17:58N 39°33' E 002°38'0 0.0
2019-Jun-15 17:28N 39°33' E 002°38'0 0.0
2019-Jun-15 16:58N 39°33' E 002°38'0 0.0
2019-Jun-15 16:29N 39°33' E 002°38'0 0.0
2019-Jun-15 15:56N 39°33' E 002°38'0 0.0
2019-Jun-15 15:29N 39°33' E 002°38'0 0.0
2019-Jun-15 14:57N 39°33' E 002°38'0 0.0
2019-Jun-15 14:30N 39°33' E 002°38'0 0.0
2019-Jun-15 14:00N 39°33' E 002°38'0 0.0
2019-Jun-15 13:28N 39°33' E 002°38'0 0.0
2019-Jun-15 12:55N 39°33' E 002°38'0 0.0
2019-Jun-15 12:25N 39°33' E 002°38'0 0.0
2019-Jun-15 11:59N 39°33' E 002°38'0 0.0
2019-Jun-15 11:30N 39°33' E 002°38'2 3.1
2019-Jun-15 11:00N 39°32' E 002°38'917.2
2019-Jun-15 10:30N 39°26' E 002°30'2614.5
2019-Jun-15 08:44N 39°51' E 002°35'520.2
2019-Jun-15 08:30N 39°55' E 002°40'1320.0
2019-Jun-15 07:51N 40°04' E 002°51'24920.3
2019-Jun-14 19:35N 43°04' E 006°41'120.1
2019-Jun-14 19:31N 43°05' E 006°42'1019.8
2019-Jun-14 19:01N 43°13' E 006°51'1019.5
2019-Jun-14 18:31N 43°22' E 006°56'917.8
2019-Jun-14 18:00N 43°31' E 007°00'2 3.0
2019-Jun-14 17:29N 43°32' E 007°01'0 0.1
2019-Jun-14 16:59N 43°32' E 007°01'0 0.0
2019-Jun-14 16:29N 43°32' E 007°01'0 0.0
2019-Jun-14 16:00N 43°32' E 007°01'0 0.1
2019-Jun-14 15:30N 43°32' E 007°00'0 0.0
2019-Jun-14 14:57N 43°32' E 007°01'0 0.0
2019-Jun-14 14:28N 43°32' E 007°00'0 0.0
2019-Jun-14 13:58N 43°32' E 007°01'0 0.0
2019-Jun-14 13:28N 43°32' E 007°01'0 0.0
2019-Jun-14 12:59N 43°32' E 007°00'0 0.0
2019-Jun-14 12:29N 43°32' E 007°01'0 0.0
2019-Jun-14 11:59N 43°32' E 007°00'0 0.0
2019-Jun-14 11:27N 43°32' E 007°01'0 0.0
2019-Jun-14 11:00N 43°32' E 007°01'0 0.0
2019-Jun-14 10:30N 43°32' E 007°00'0 0.0
2019-Jun-14 09:58N 43°32' E 007°01'0 0.0
2019-Jun-14 09:28N 43°32' E 007°01'0 0.0
2019-Jun-14 08:58N 43°32' E 007°00'0 0.0
2019-Jun-14 08:29N 43°32' E 007°00'0 0.0
2019-Jun-14 07:59N 43°32' E 007°00'0 0.0
2019-Jun-14 07:29N 43°32' E 007°00'0 0.0
2019-Jun-14 07:00N 43°32' E 007°00'0 0.0
2019-Jun-14 06:27N 43°32' E 007°00'0 0.0
2019-Jun-14 06:00N 43°32' E 007°00'0 0.0
2019-Jun-14 05:28N 43°32' E 007°00'0 0.0
2019-Jun-14 04:58N 43°32' E 007°01'2 3.9
2019-Jun-14 04:30N 43°30' E 007°00'610.9
2019-Jun-14 04:00N 43°28' E 007°07'815.8
2019-Jun-14 03:30N 43°28' E 007°18'816.7
2019-Jun-14 03:00N 43°28' E 007°30'816.6
2019-Jun-14 02:30N 43°29' E 007°41'816.3
2019-Jun-14 02:00N 43°29' E 007°52'816.2
2019-Jun-14 01:30N 43°29' E 008°03'816.5
2019-Jun-14 01:00N 43°29' E 008°15'917.2
2019-Jun-14 00:30N 43°30' E 008°27'917.3
2019-Jun-14 00:00N 43°30' E 008°38'816.7
2019-Jun-13 23:30N 43°30' E 008°50'816.5
2019-Jun-13 23:00N 43°31' E 009°01'816.3
2019-Jun-13 22:30N 43°31' E 009°13'816.2
2019-Jun-13 22:00N 43°31' E 009°24'816.1
2019-Jun-13 21:30N 43°31' E 009°35'816.5
2019-Jun-13 21:00N 43°31' E 009°46'816.6
2019-Jun-13 20:30N 43°31' E 009°58'816.4
2019-Jun-13 20:00N 43°30' E 010°09'713.2
2019-Jun-13 19:31N 43°32' E 010°17'1 1.7
2019-Jun-13 19:00N 43°33' E 010°18'0 0.0
2019-Jun-13 18:29N 43°33' E 010°18'0 0.0
2019-Jun-13 17:59N 43°33' E 010°18'0 0.0
2019-Jun-13 17:30N 43°33' E 010°18'0 0.0
2019-Jun-13 17:00N 43°33' E 010°18'0 0.0
2019-Jun-13 16:30N 43°33' E 010°18'0 0.0
2019-Jun-13 15:58N 43°33' E 010°18'0 0.0
2019-Jun-13 15:28N 43°33' E 010°18'0 0.0
2019-Jun-13 14:58N 43°33' E 010°18'0 0.0
2019-Jun-13 14:29N 43°33' E 010°18'0 0.0
2019-Jun-13 13:59N 43°33' E 010°18'0 0.0
2019-Jun-13 13:29N 43°33' E 010°18'0 0.0
2019-Jun-13 12:57N 43°33' E 010°18'0 0.0
2019-Jun-13 12:30N 43°33' E 010°18'0 0.0
2019-Jun-13 12:00N 43°33' E 010°18'0 0.0
2019-Jun-13 11:30N 43°33' E 010°18'0 0.0
2019-Jun-13 10:58N 43°33' E 010°18'0 0.0
2019-Jun-13 10:28N 43°33' E 010°18'0 0.0
2019-Jun-13 09:58N 43°33' E 010°18'0 0.0
2019-Jun-13 09:29N 43°33' E 010°18'0 0.0
2019-Jun-13 08:59N 43°33' E 010°18'0 0.0
2019-Jun-13 08:29N 43°33' E 010°18'0 0.0
2019-Jun-13 08:00N 43°33' E 010°18'0 0.0
2019-Jun-13 07:24N 43°33' E 010°18'0 0.0
2019-Jun-13 07:00N 43°33' E 010°18'0 0.0
2019-Jun-13 06:30N 43°33' E 010°18'2 4.7
2019-Jun-13 06:00N 43°31' E 010°16'918.7
2019-Jun-13 05:31N 43°23' E 010°11'1020.8
2019-Jun-13 05:00N 43°13' E 010°07'1020.7
2019-Jun-13 04:30N 43°03' E 010°03'1020.6
2019-Jun-13 04:01N 42°53' E 009°60'1020.2
2019-Jun-13 03:30N 42°43' E 009°57'1019.4
2019-Jun-13 03:01N 42°34' E 009°54'1020.1
2019-Jun-13 02:30N 42°24' E 009°56'2018.6
2019-Jun-13 01:26N 42°11' E 010°16'1220.9
2019-Jun-13 00:51N 42°06' E 010°32'2020.2
2019-Jun-12 23:50N 41°59' E 010°58'1919.9
2019-Jun-12 22:53N 41°57' E 011°23'22 1.1
2019-Jun-12 01:33N 41°44' E 011°48'517.1
2019-Jun-12 01:15N 41°40' E 011°51'417.2
2019-Jun-12 01:00N 41°36' E 011°54'1317.2
2019-Jun-12 00:14N 41°25' E 012°04'1917.1
2019-Jun-11 23:08N 41°10' E 012°18'3318.1
2019-Jun-11 21:20N 40°48' E 012°51'619.3
2019-Jun-11 21:00N 40°45' E 012°58'919.0
2019-Jun-11 20:30N 40°43' E 013°10'1019.2
2019-Jun-11 20:00N 40°41' E 013°22'1019.2
2019-Jun-11 19:30N 40°39' E 013°35'1019.0
2019-Jun-11 19:00N 40°38' E 013°47'918.3
2019-Jun-11 18:30N 40°39' E 013°59'816.0
2019-Jun-11 18:00N 40°42' E 014°09'815.5
2019-Jun-11 17:30N 40°48' E 014°16'3 4.9
2019-Jun-11 16:59N 40°50' E 014°16'0 0.0
2019-Jun-11 16:29N 40°50' E 014°16'0 0.0
2019-Jun-11 16:00N 40°50' E 014°16'0 0.0
2019-Jun-11 15:30N 40°50' E 014°16'0 0.0
2019-Jun-11 15:00N 40°50' E 014°16'0 0.0
2019-Jun-11 14:28N 40°50' E 014°16'0 0.0
2019-Jun-11 13:58N 40°50' E 014°16'0 0.0
2019-Jun-11 13:28N 40°50' E 014°16'0 0.0
2019-Jun-11 12:56N 40°50' E 014°16'0 0.0
2019-Jun-11 12:29N 40°50' E 014°16'0 0.0
2019-Jun-11 11:59N 40°50' E 014°16'0 0.0
2019-Jun-11 11:30N 40°50' E 014°16'0 0.0
2019-Jun-11 11:00N 40°50' E 014°16'0 0.0
2019-Jun-11 10:30N 40°50' E 014°16'0 0.0
2019-Jun-11 09:55N 40°50' E 014°16'0 0.0
2019-Jun-11 09:28N 40°50' E 014°16'0 0.0
2019-Jun-11 08:58N 40°50' E 014°16'0 0.0
2019-Jun-11 08:23N 40°50' E 014°16'0 0.0
2019-Jun-11 07:56N 40°50' E 014°16'0 0.0
2019-Jun-11 07:29N 40°50' E 014°16'0 0.0
2019-Jun-11 06:57N 40°50' E 014°16'0 0.0
2019-Jun-11 06:30N 40°50' E 014°16'0 0.0
2019-Jun-11 06:00N 40°50' E 014°16'0 0.0
2019-Jun-11 05:28N 40°50' E 014°16'0 0.0
2019-Jun-11 05:00N 40°50' E 014°16'0 0.9
2019-Jun-11 04:30N 40°50' E 014°16'3 5.3
2019-Jun-11 04:00N 40°48' E 014°17'5 9.8
2019-Jun-11 03:30N 40°44' E 014°12'714.7
2019-Jun-11 03:01N 40°40' E 014°05'714.7
2019-Jun-11 02:31N 40°38' E 013°55'815.3
2019-Jun-11 02:01N 40°38' E 013°45'714.9
2019-Jun-11 01:31N 40°39' E 013°36'815.0
2019-Jun-11 01:01N 40°40' E 013°26'714.8
2019-Jun-11 00:31N 40°41' E 013°16'714.9
2019-Jun-11 00:01N 40°42' E 013°06'714.9
2019-Jun-10 23:31N 40°43' E 012°57'714.9
2019-Jun-10 23:01N 40°43' E 012°47'1215.4
2019-Jun-10 22:15N 40°46' E 012°32'6115.4
2019-Jun-10 18:15N 41°01' E 011°13'615.5
2019-Jun-10 17:54N 41°02' E 011°06'1115.7
2019-Jun-10 17:10N 41°05' E 010°51'7717.0
2019-Jun-10 12:38N 41°17' E 009°10'0 0.4
2019-Jun-10 12:13N 41°17' E 009°10'315.6
2019-Jun-10 12:01N 41°17' E 009°05'816.3
2019-Jun-10 11:31N 41°17' E 008°54'816.6
2019-Jun-10 11:00N 41°17' E 008°43'27116.4
2019-Jun-09 18:28N 41°16' E 002°42'715.7
2019-Jun-09 18:01N 41°16' E 002°33'815.9
2019-Jun-09 17:31N 41°16' E 002°22'815.7
2019-Jun-09 17:00N 41°16' E 002°12'5 9.3
2019-Jun-09 16:30N 41°21' E 002°10'1 2.0
2019-Jun-09 15:53N 41°22' E 002°11'0 0.0
2019-Jun-09 15:29N 41°22' E 002°11'0 0.0
2019-Jun-09 14:56N 41°22' E 002°11'0 0.0
2019-Jun-09 14:30N 41°22' E 002°11'0 0.0
2019-Jun-09 14:00N 41°22' E 002°11'0 0.0
2019-Jun-09 13:30N 41°22' E 002°11'0 0.0
2019-Jun-09 12:58N 41°22' E 002°11'0 0.0
2019-Jun-09 12:28N 41°22' E 002°11'0 0.0
2019-Jun-09 11:58N 41°22' E 002°11'0 0.0
2019-Jun-09 11:26N 41°22' E 002°11'0 0.0
2019-Jun-09 10:59N 41°22' E 002°11'0 0.0
2019-Jun-09 10:26N 41°22' E 002°11'0 0.0
2019-Jun-09 10:00N 41°22' E 002°11'0 0.0
2019-Jun-09 09:30N 41°22' E 002°11'0 0.0
2019-Jun-09 09:00N 41°22' E 002°11'0 0.0
2019-Jun-09 08:25N 41°22' E 002°11'0 0.0
2019-Jun-09 07:55N 41°22' E 002°11'0 0.0
2019-Jun-09 07:25N 41°22' E 002°11'0 0.0
2019-Jun-09 06:56N 41°22' E 002°11'0 0.0
2019-Jun-09 06:29N 41°22' E 002°11'0 0.0
2019-Jun-09 05:56N 41°22' E 002°11'0 0.0
2019-Jun-09 05:30N 41°22' E 002°11'0 0.0
2019-Jun-09 05:00N 41°22' E 002°11'0 0.0
2019-Jun-09 03:58N 41°22' E 002°11'0 0.0
2019-Jun-09 03:28N 41°22' E 002°11'0 0.2
2019-Jun-09 03:00N 41°22' E 002°11'1 2.7
2019-Jun-09 02:31N 41°20' E 002°10'3 6.3
2019-Jun-09 02:00N 41°17' E 002°11'4 8.2
2019-Jun-09 01:30N 41°15' E 002°15'611.2
2019-Jun-09 01:00N 41°12' E 002°22'611.2
2019-Jun-09 00:30N 41°09' E 002°28'611.4
2019-Jun-09 00:00N 41°06' E 002°35'611.6
2019-Jun-08 23:30N 41°03' E 002°41'611.6
2019-Jun-08 23:00N 41°00' E 002°48'611.5
2019-Jun-08 22:30N 40°57' E 002°54'611.6
2019-Jun-08 22:00N 40°55' E 003°01'611.8
2019-Jun-08 21:30N 40°51' E 003°08'611.7
2019-Jun-08 21:00N 40°48' E 003°14'612.0
2019-Jun-08 20:30N 40°45' E 003°21'612.1
2019-Jun-08 20:00N 40°43' E 003°28'4 8.6
2019-Jun-08 19:30N 40°45' E 003°34'4 7.6
2019-Jun-08 19:01N 40°42' E 003°30'3 6.1
2019-Jun-08 18:30N 40°39' E 003°29'2 4.4
2019-Jun-08 18:00N 40°38' E 003°31'4 7.1
2019-Jun-08 17:30N 40°42' E 003°31'4 6.9
2019-Jun-08 16:59N 40°43' E 003°35'2 4.6
2019-Jun-08 16:31N 40°43' E 003°32'3 6.6
2019-Jun-08 16:00N 40°41' E 003°29'3 5.2
2019-Jun-08 15:30N 40°39' E 003°32'3 5.9
2019-Jun-08 15:01N 40°42' E 003°32'3 6.7
2019-Jun-08 14:30N 40°43' E 003°36'2 4.9
2019-Jun-08 14:00N 40°42' E 003°33'115 7.3
2019-Jun-07 22:23N 42°02' E 005°22'4520.8
2019-Jun-07 20:12N 42°35' E 006°04'4321.1
2019-Jun-07 18:10N 43°06' E 006°46'321.4
2019-Jun-07 18:00N 43°08' E 006°49'1021.0
2019-Jun-07 17:30N 43°18' E 006°55'918.8
2019-Jun-07 17:00N 43°27' E 006°58'510.8
2019-Jun-07 16:30N 43°32' E 007°01'0 0.3
2019-Jun-07 15:59N 43°32' E 007°01'0 0.0
2019-Jun-07 15:30N 43°32' E 007°01'0 0.0
2019-Jun-07 15:00N 43°32' E 007°01'0 0.0
2019-Jun-07 14:30N 43°32' E 007°00'0 0.0
2019-Jun-07 13:58N 43°32' E 007°01'0 0.0
2019-Jun-07 13:28N 43°32' E 007°01'0 0.0
2019-Jun-07 12:58N 43°32' E 007°01'0 0.0
2019-Jun-07 12:29N 43°32' E 007°01'0 0.0
2019-Jun-07 11:59N 43°32' E 007°00'0 0.0
2019-Jun-07 11:26N 43°32' E 007°01'0 0.0
2019-Jun-07 11:00N 43°32' E 007°01'0 0.0
2019-Jun-07 10:30N 43°32' E 007°01'0 0.0
2019-Jun-07 10:00N 43°32' E 007°00'0 0.0
2019-Jun-07 09:28N 43°32' E 007°00'0 0.0
2019-Jun-07 08:58N 43°32' E 007°00'0 0.0
2019-Jun-07 08:28N 43°32' E 007°01'0 0.0
2019-Jun-07 07:59N 43°32' E 007°00'0 0.1
2019-Jun-07 07:29N 43°32' E 007°00'0 0.0
2019-Jun-07 06:59N 43°32' E 007°00'0 0.0
2019-Jun-07 06:30N 43°32' E 007°00'0 0.0
2019-Jun-07 06:00N 43°32' E 007°00'0 0.1
2019-Jun-07 05:30N 43°32' E 007°01'0 0.1
2019-Jun-07 05:00N 43°32' E 007°01'2 4.0
2019-Jun-07 04:30N 43°30' E 007°01'5 9.8
2019-Jun-07 04:00N 43°28' E 007°07'612.4
2019-Jun-07 03:30N 43°28' E 007°15'612.6
2019-Jun-07 03:00N 43°28' E 007°24'713.3
2019-Jun-07 02:30N 43°28' E 007°33'713.3
2019-Jun-07 02:00N 43°29' E 007°42'613.0
2019-Jun-07 01:30N 43°29' E 007°51'612.9
2019-Jun-07 01:00N 43°29' E 008°00'612.7
2019-Jun-07 00:30N 43°29' E 008°09'612.4
2019-Jun-07 00:00N 43°30' E 008°17'612.5
2019-Jun-06 23:30N 43°30' E 008°26'612.5
2019-Jun-06 23:00N 43°31' E 008°35'612.4
2019-Jun-06 22:30N 43°32' E 008°43'612.2
2019-Jun-06 22:00N 43°31' E 008°51'612.0
2019-Jun-06 21:30N 43°31' E 008°59'611.9
2019-Jun-06 21:00N 43°32' E 009°08'612.2
2019-Jun-06 20:30N 43°32' E 009°16'612.6
2019-Jun-06 20:00N 43°32' E 009°25'815.4
2019-Jun-06 19:30N 43°31' E 009°35'816.0
2019-Jun-06 19:00N 43°31' E 009°46'816.1
2019-Jun-06 18:30N 43°31' E 009°57'816.1
2019-Jun-06 18:00N 43°30' E 010°08'613.0
2019-Jun-06 17:30N 43°32' E 010°17'1 2.0
2019-Jun-06 17:00N 43°33' E 010°18'0 0.0
2019-Jun-06 16:25N 43°33' E 010°18'0 0.0
2019-Jun-06 15:52N 43°33' E 010°18'0 0.0
2019-Jun-06 15:28N 43°33' E 010°18'0 0.0
2019-Jun-06 14:59N 43°33' E 010°18'0 0.0
2019-Jun-06 14:26N 43°33' E 010°18'  

Dump ship's entire track history